sensor_id;sensor_type;location;lat;lon;timestamp;P1;durP1;ratioP1;P2;durP2;ratioP2
69260;SDS011;56378;52.404;20.816;2024-03-23T00:56:03;33.38;;;14.60;;
69260;SDS011;56378;52.404;20.816;2024-03-23T00:58:29;35.20;;;14.77;;
69260;SDS011;56378;52.404;20.816;2024-03-23T01:00:55;34.38;;;14.50;;
69260;SDS011;56378;52.404;20.816;2024-03-23T01:03:21;31.95;;;14.77;;
69260;SDS011;56378;52.404;20.816;2024-03-23T01:05:47;31.40;;;14.27;;
69260;SDS011;56378;52.404;20.816;2024-03-23T01:08:13;29.73;;;13.90;;
69260;SDS011;56378;52.404;20.816;2024-03-23T01:10:39;29.15;;;13.98;;
69260;SDS011;56378;52.404;20.816;2024-03-23T01:13:05;33.03;;;14.70;;
69260;SDS011;56378;52.404;20.816;2024-03-23T01:15:31;34.93;;;14.47;;
69260;SDS011;56378;52.404;20.816;2024-03-23T01:17:57;33.77;;;15.30;;
69260;SDS011;56378;52.404;20.816;2024-03-23T01:20:22;36.25;;;15.35;;
69260;SDS011;56378;52.404;20.816;2024-03-23T01:22:48;32.90;;;14.97;;
69260;SDS011;56378;52.404;20.816;2024-03-23T01:25:14;36.95;;;16.02;;
69260;SDS011;56378;52.404;20.816;2024-03-23T01:27:39;35.17;;;15.50;;
69260;SDS011;56378;52.404;20.816;2024-03-23T01:30:05;37.83;;;14.93;;
69260;SDS011;56378;52.404;20.816;2024-03-23T01:32:32;38.78;;;16.92;;
69260;SDS011;56378;52.404;20.816;2024-03-23T01:34:58;42.38;;;17.52;;
69260;SDS011;56378;52.404;20.816;2024-03-23T01:37:23;38.03;;;16.07;;
69260;SDS011;56378;52.404;20.816;2024-03-23T01:39:49;40.92;;;17.27;;
69260;SDS011;56378;52.404;20.816;2024-03-23T01:42:15;41.33;;;17.17;;
69260;SDS011;56378;52.404;20.816;2024-03-23T01:44:40;41.33;;;17.30;;
69260;SDS011;56378;52.404;20.816;2024-03-23T01:47:06;41.08;;;17.25;;
69260;SDS011;56378;52.404;20.816;2024-03-23T01:49:38;39.75;;;17.13;;
69260;SDS011;56378;52.404;20.816;2024-03-23T01:52:04;35.83;;;16.30;;
69260;SDS011;56378;52.404;20.816;2024-03-23T01:54:30;40.08;;;17.55;;
69260;SDS011;56378;52.404;20.816;2024-03-23T01:56:56;37.92;;;17.65;;
69260;SDS011;56378;52.404;20.816;2024-03-23T01:59:22;39.57;;;16.93;;
69260;SDS011;56378;52.404;20.816;2024-03-23T02:01:48;34.40;;;17.13;;
69260;SDS011;56378;52.404;20.816;2024-03-23T02:04:14;37.67;;;16.80;;
69260;SDS011;56378;52.404;20.816;2024-03-23T02:06:39;43.93;;;18.23;;
69260;SDS011;56378;52.404;20.816;2024-03-23T02:09:05;41.22;;;17.75;;
69260;SDS011;56378;52.404;20.816;2024-03-23T02:11:31;43.83;;;17.70;;
69260;SDS011;56378;52.404;20.816;2024-03-23T02:13:56;40.95;;;17.02;;
69260;SDS011;56378;52.404;20.816;2024-03-23T02:16:23;40.77;;;18.27;;
69260;SDS011;56378;52.404;20.816;2024-03-23T02:18:49;40.00;;;18.45;;
69260;SDS011;56378;52.404;20.816;2024-03-23T02:23:46;38.60;;;18.10;;
69260;SDS011;56378;52.404;20.816;2024-03-23T02:26:12;41.88;;;17.75;;
69260;SDS011;56378;52.404;20.816;2024-03-23T02:28:39;40.40;;;18.63;;
69260;SDS011;56378;52.404;20.816;2024-03-23T02:31:06;39.60;;;18.30;;
69260;SDS011;56378;52.404;20.816;2024-03-23T02:33:32;39.28;;;17.52;;
69260;SDS011;56378;52.404;20.816;2024-03-23T02:35:59;42.47;;;19.00;;
69260;SDS011;56378;52.404;20.816;2024-03-23T02:38:24;43.80;;;18.97;;
69260;SDS011;56378;52.404;20.816;2024-03-23T02:40:50;46.47;;;18.97;;
69260;SDS011;56378;52.404;20.816;2024-03-23T02:43:16;43.40;;;19.02;;
69260;SDS011;56378;52.404;20.816;2024-03-23T02:45:41;41.57;;;19.00;;
69260;SDS011;56378;52.404;20.816;2024-03-23T02:48:07;44.53;;;19.20;;
69260;SDS011;56378;52.404;20.816;2024-03-23T02:50:33;45.40;;;19.07;;
69260;SDS011;56378;52.404;20.816;2024-03-23T02:53:02;42.63;;;19.03;;
69260;SDS011;56378;52.404;20.816;2024-03-23T02:55:28;42.23;;;18.63;;
69260;SDS011;56378;52.404;20.816;2024-03-23T02:57:54;42.55;;;18.92;;
69260;SDS011;56378;52.404;20.816;2024-03-23T03:00:20;44.03;;;19.17;;
69260;SDS011;56378;52.404;20.816;2024-03-23T03:02:45;40.93;;;19.20;;
69260;SDS011;56378;52.404;20.816;2024-03-23T03:05:11;45.13;;;19.63;;
69260;SDS011;56378;52.404;20.816;2024-03-23T03:07:38;42.83;;;19.53;;
69260;SDS011;56378;52.404;20.816;2024-03-23T03:10:06;42.45;;;19.23;;
69260;SDS011;56378;52.404;20.816;2024-03-23T03:12:33;42.10;;;18.13;;
69260;SDS011;56378;52.404;20.816;2024-03-23T03:14:59;43.10;;;19.50;;
69260;SDS011;56378;52.404;20.816;2024-03-23T03:17:24;44.30;;;19.25;;
69260;SDS011;56378;52.404;20.816;2024-03-23T03:19:50;43.70;;;19.03;;
69260;SDS011;56378;52.404;20.816;2024-03-23T03:22:22;40.15;;;18.92;;
69260;SDS011;56378;52.404;20.816;2024-03-23T03:24:47;42.67;;;18.92;;
69260;SDS011;56378;52.404;20.816;2024-03-23T03:27:13;42.37;;;19.50;;
69260;SDS011;56378;52.404;20.816;2024-03-23T03:29:40;40.75;;;19.33;;
69260;SDS011;56378;52.404;20.816;2024-03-23T03:32:05;42.47;;;19.70;;
69260;SDS011;56378;52.404;20.816;2024-03-23T03:34:31;42.60;;;19.77;;
69260;SDS011;56378;52.404;20.816;2024-03-23T03:36:57;42.70;;;19.27;;
69260;SDS011;56378;52.404;20.816;2024-03-23T03:39:23;42.40;;;19.53;;
69260;SDS011;56378;52.404;20.816;2024-03-23T03:41:49;44.38;;;19.23;;
69260;SDS011;56378;52.404;20.816;2024-03-23T03:44:15;41.33;;;19.58;;
69260;SDS011;56378;52.404;20.816;2024-03-23T03:46:41;48.28;;;20.60;;
69260;SDS011;56378;52.404;20.816;2024-03-23T03:49:07;43.40;;;19.70;;
69260;SDS011;56378;52.404;20.816;2024-03-23T03:51:34;45.95;;;20.27;;
69260;SDS011;56378;52.404;20.816;2024-03-23T03:54:00;41.65;;;20.40;;
69260;SDS011;56378;52.404;20.816;2024-03-23T03:56:26;45.43;;;20.03;;
69260;SDS011;56378;52.404;20.816;2024-03-23T03:58:52;47.30;;;21.07;;
69260;SDS011;56378;52.404;20.816;2024-03-23T04:01:18;45.50;;;20.13;;
69260;SDS011;56378;52.404;20.816;2024-03-23T04:03:44;42.83;;;19.50;;
69260;SDS011;56378;52.404;20.816;2024-03-23T04:06:19;47.47;;;19.92;;
69260;SDS011;56378;52.404;20.816;2024-03-23T04:08:45;43.38;;;19.42;;
69260;SDS011;56378;52.404;20.816;2024-03-23T04:11:10;46.77;;;20.07;;
69260;SDS011;56378;52.404;20.816;2024-03-23T04:13:36;44.17;;;19.70;;
69260;SDS011;56378;52.404;20.816;2024-03-23T04:16:02;41.07;;;19.90;;
69260;SDS011;56378;52.404;20.816;2024-03-23T04:18:28;46.20;;;20.30;;
69260;SDS011;56378;52.404;20.816;2024-03-23T04:20:53;43.67;;;20.27;;
69260;SDS011;56378;52.404;20.816;2024-03-23T04:23:19;43.50;;;20.13;;
69260;SDS011;56378;52.404;20.816;2024-03-23T04:25:46;42.97;;;19.58;;
69260;SDS011;56378;52.404;20.816;2024-03-23T04:28:11;42.17;;;19.70;;
69260;SDS011;56378;52.404;20.816;2024-03-23T04:30:37;45.42;;;20.25;;
69260;SDS011;56378;52.404;20.816;2024-03-23T04:33:03;44.93;;;20.07;;
69260;SDS011;56378;52.404;20.816;2024-03-23T04:35:30;48.95;;;22.45;;
69260;SDS011;56378;52.404;20.816;2024-03-23T04:37:56;47.27;;;21.10;;
69260;SDS011;56378;52.404;20.816;2024-03-23T04:40:23;48.03;;;21.30;;
69260;SDS011;56378;52.404;20.816;2024-03-23T04:42:49;47.42;;;21.17;;
69260;SDS011;56378;52.404;20.816;2024-03-23T04:45:15;44.45;;;19.67;;
69260;SDS011;56378;52.404;20.816;2024-03-23T04:47:40;46.13;;;20.63;;
69260;SDS011;56378;52.404;20.816;2024-03-23T04:50:06;45.63;;;20.27;;
69260;SDS011;56378;52.404;20.816;2024-03-23T04:52:38;44.65;;;20.23;;
69260;SDS011;56378;52.404;20.816;2024-03-23T04:55:06;43.28;;;19.95;;
69260;SDS011;56378;52.404;20.816;2024-03-23T04:57:32;46.63;;;21.02;;
69260;SDS011;56378;52.404;20.816;2024-03-23T04:59:58;48.13;;;21.23;;
69260;SDS011;56378;52.404;20.816;2024-03-23T05:02:23;47.30;;;21.27;;
69260;SDS011;56378;52.404;20.816;2024-03-23T05:04:50;45.53;;;20.35;;
69260;SDS011;56378;52.404;20.816;2024-03-23T05:07:16;45.92;;;20.75;;
69260;SDS011;56378;52.404;20.816;2024-03-23T05:09:42;44.13;;;20.53;;
69260;SDS011;56378;52.404;20.816;2024-03-23T05:12:07;46.05;;;19.80;;
69260;SDS011;56378;52.404;20.816;2024-03-23T05:14:33;44.30;;;19.30;;
69260;SDS011;56378;52.404;20.816;2024-03-23T05:16:58;45.63;;;20.03;;
69260;SDS011;56378;52.404;20.816;2024-03-23T05:19:24;45.95;;;20.52;;
69260;SDS011;56378;52.404;20.816;2024-03-23T05:21:51;43.70;;;20.70;;
69260;SDS011;56378;52.404;20.816;2024-03-23T05:24:18;46.85;;;22.15;;
69260;SDS011;56378;52.404;20.816;2024-03-23T05:26:43;47.23;;;22.13;;
69260;SDS011;56378;52.404;20.816;2024-03-23T05:29:13;47.42;;;21.77;;
69260;SDS011;56378;52.404;20.816;2024-03-23T05:31:38;44.90;;;20.90;;
69260;SDS011;56378;52.404;20.816;2024-03-23T05:34:15;43.00;;;20.70;;
69260;SDS011;56378;52.404;20.816;2024-03-23T05:36:40;42.50;;;19.88;;
69260;SDS011;56378;52.404;20.816;2024-03-23T05:39:06;43.47;;;19.42;;
69260;SDS011;56378;52.404;20.816;2024-03-23T05:41:31;41.93;;;19.13;;
69260;SDS011;56378;52.404;20.816;2024-03-23T05:43:58;40.53;;;19.52;;
69260;SDS011;56378;52.404;20.816;2024-03-23T05:46:24;42.07;;;19.67;;
69260;SDS011;56378;52.404;20.816;2024-03-23T05:48:50;40.92;;;19.98;;
69260;SDS011;56378;52.404;20.816;2024-03-23T05:51:17;41.10;;;19.40;;
69260;SDS011;56378;52.404;20.816;2024-03-23T05:53:42;43.53;;;19.53;;
69260;SDS011;56378;52.404;20.816;2024-03-23T05:56:08;37.97;;;19.55;;
69260;SDS011;56378;52.404;20.816;2024-03-23T05:58:34;40.10;;;19.20;;
69260;SDS011;56378;52.404;20.816;2024-03-23T06:01:00;43.65;;;19.27;;
69260;SDS011;56378;52.404;20.816;2024-03-23T06:03:27;41.60;;;20.37;;
69260;SDS011;56378;52.404;20.816;2024-03-23T06:05:53;42.70;;;19.17;;
69260;SDS011;56378;52.404;20.816;2024-03-23T06:08:19;40.92;;;19.73;;
69260;SDS011;56378;52.404;20.816;2024-03-23T06:10:48;39.95;;;19.30;;
69260;SDS011;56378;52.404;20.816;2024-03-23T06:13:15;43.80;;;20.33;;
69260;SDS011;56378;52.404;20.816;2024-03-23T06:15:40;38.85;;;18.92;;
69260;SDS011;56378;52.404;20.816;2024-03-23T06:18:07;40.80;;;19.20;;
69260;SDS011;56378;52.404;20.816;2024-03-23T06:20:33;39.53;;;19.07;;
69260;SDS011;56378;52.404;20.816;2024-03-23T06:22:59;38.92;;;19.58;;
69260;SDS011;56378;52.404;20.816;2024-03-23T06:25:28;42.17;;;18.75;;
69260;SDS011;56378;52.404;20.816;2024-03-23T06:27:54;40.92;;;19.30;;
69260;SDS011;56378;52.404;20.816;2024-03-23T06:30:20;38.78;;;18.95;;
69260;SDS011;56378;52.404;20.816;2024-03-23T06:32:46;40.17;;;18.67;;
69260;SDS011;56378;52.404;20.816;2024-03-23T06:35:12;38.30;;;18.55;;
69260;SDS011;56378;52.404;20.816;2024-03-23T06:37:38;41.87;;;18.87;;
69260;SDS011;56378;52.404;20.816;2024-03-23T06:40:06;42.10;;;20.02;;
69260;SDS011;56378;52.404;20.816;2024-03-23T06:42:34;46.22;;;21.88;;
69260;SDS011;56378;52.404;20.816;2024-03-23T06:45:01;42.88;;;20.65;;
69260;SDS011;56378;52.404;20.816;2024-03-23T06:47:26;47.13;;;22.97;;
69260;SDS011;56378;52.404;20.816;2024-03-23T06:49:52;42.10;;;20.43;;
69260;SDS011;56378;52.404;20.816;2024-03-23T06:52:18;44.50;;;20.60;;
69260;SDS011;56378;52.404;20.816;2024-03-23T06:54:43;41.70;;;20.00;;
69260;SDS011;56378;52.404;20.816;2024-03-23T06:57:10;46.67;;;22.35;;
69260;SDS011;56378;52.404;20.816;2024-03-23T06:59:37;55.55;;;29.67;;
69260;SDS011;56378;52.404;20.816;2024-03-23T07:02:03;47.97;;;24.38;;
69260;SDS011;56378;52.404;20.816;2024-03-23T07:04:31;41.50;;;23.02;;
69260;SDS011;56378;52.404;20.816;2024-03-23T07:06:56;47.63;;;23.00;;
69260;SDS011;56378;52.404;20.816;2024-03-23T07:09:22;43.03;;;21.93;;
69260;SDS011;56378;52.404;20.816;2024-03-23T07:11:51;44.95;;;22.10;;
69260;SDS011;56378;52.404;20.816;2024-03-23T07:14:18;38.95;;;20.73;;
69260;SDS011;56378;52.404;20.816;2024-03-23T07:16:47;41.93;;;19.90;;
69260;SDS011;56378;52.404;20.816;2024-03-23T07:19:14;40.92;;;20.25;;
69260;SDS011;56378;52.404;20.816;2024-03-23T07:21:43;44.78;;;20.80;;
69260;SDS011;56378;52.404;20.816;2024-03-23T07:24:09;49.05;;;22.92;;
69260;SDS011;56378;52.404;20.816;2024-03-23T07:26:35;41.03;;;20.70;;
69260;SDS011;56378;52.404;20.816;2024-03-23T07:29:01;48.57;;;20.67;;
69260;SDS011;56378;52.404;20.816;2024-03-23T07:31:28;45.13;;;21.95;;
69260;SDS011;56378;52.404;20.816;2024-03-23T07:33:54;44.93;;;21.53;;
69260;SDS011;56378;52.404;20.816;2024-03-23T07:36:19;46.90;;;23.03;;
69260;SDS011;56378;52.404;20.816;2024-03-23T07:38:45;50.05;;;22.23;;
69260;SDS011;56378;52.404;20.816;2024-03-23T07:41:12;50.07;;;22.23;;
69260;SDS011;56378;52.404;20.816;2024-03-23T07:43:42;51.70;;;23.52;;
69260;SDS011;56378;52.404;20.816;2024-03-23T07:46:09;49.23;;;21.90;;
69260;SDS011;56378;52.404;20.816;2024-03-23T07:48:35;47.33;;;20.60;;
69260;SDS011;56378;52.404;20.816;2024-03-23T07:53:28;44.63;;;19.75;;
69260;SDS011;56378;52.404;20.816;2024-03-23T07:55:57;39.63;;;20.08;;
69260;SDS011;56378;52.404;20.816;2024-03-23T07:58:24;43.33;;;20.03;;
69260;SDS011;56378;52.404;20.816;2024-03-23T08:00:50;41.95;;;19.77;;
69260;SDS011;56378;52.404;20.816;2024-03-23T08:03:16;44.53;;;21.05;;
69260;SDS011;56378;52.404;20.816;2024-03-23T08:05:41;45.17;;;20.43;;
69260;SDS011;56378;52.404;20.816;2024-03-23T08:08:07;41.20;;;20.13;;
69260;SDS011;56378;52.404;20.816;2024-03-23T08:10:33;46.33;;;21.17;;
69260;SDS011;56378;52.404;20.816;2024-03-23T08:13:00;45.33;;;21.00;;
69260;SDS011;56378;52.404;20.816;2024-03-23T08:15:26;42.55;;;20.48;;
69260;SDS011;56378;52.404;20.816;2024-03-23T08:17:52;39.90;;;18.77;;
69260;SDS011;56378;52.404;20.816;2024-03-23T08:20:17;39.90;;;19.10;;
69260;SDS011;56378;52.404;20.816;2024-03-23T08:22:43;41.47;;;20.30;;
69260;SDS011;56378;52.404;20.816;2024-03-23T08:25:09;38.17;;;17.92;;
69260;SDS011;56378;52.404;20.816;2024-03-23T08:27:34;37.23;;;17.87;;
69260;SDS011;56378;52.404;20.816;2024-03-23T08:30:00;34.72;;;17.65;;
69260;SDS011;56378;52.404;20.816;2024-03-23T08:32:27;35.80;;;16.80;;
69260;SDS011;56378;52.404;20.816;2024-03-23T08:34:52;37.35;;;17.33;;
69260;SDS011;56378;52.404;20.816;2024-03-23T08:37:18;31.65;;;15.35;;
69260;SDS011;56378;52.404;20.816;2024-03-23T08:39:54;32.17;;;15.60;;
69260;SDS011;56378;52.404;20.816;2024-03-23T08:42:23;31.83;;;14.60;;
69260;SDS011;56378;52.404;20.816;2024-03-23T08:44:49;29.67;;;15.05;;
69260;SDS011;56378;52.404;20.816;2024-03-23T08:47:15;27.73;;;12.90;;
69260;SDS011;56378;52.404;20.816;2024-03-23T08:49:41;27.88;;;13.80;;
69260;SDS011;56378;52.404;20.816;2024-03-23T08:54:37;27.50;;;14.07;;
69260;SDS011;56378;52.404;20.816;2024-03-23T08:57:02;28.40;;;13.18;;
69260;SDS011;56378;52.404;20.816;2024-03-23T08:59:28;29.33;;;14.20;;
69260;SDS011;56378;52.404;20.816;2024-03-23T09:01:54;28.27;;;14.25;;
69260;SDS011;56378;52.404;20.816;2024-03-23T09:04:19;25.67;;;13.00;;
69260;SDS011;56378;52.404;20.816;2024-03-23T09:06:46;26.95;;;13.18;;
69260;SDS011;56378;52.404;20.816;2024-03-23T09:09:12;25.50;;;12.82;;
69260;SDS011;56378;52.404;20.816;2024-03-23T09:11:37;25.80;;;13.40;;
69260;SDS011;56378;52.404;20.816;2024-03-23T09:14:03;24.05;;;12.68;;
69260;SDS011;56378;52.404;20.816;2024-03-23T09:16:29;26.10;;;13.40;;
69260;SDS011;56378;52.404;20.816;2024-03-23T09:18:55;27.13;;;13.55;;
69260;SDS011;56378;52.404;20.816;2024-03-23T09:21:21;25.30;;;12.83;;
69260;SDS011;56378;52.404;20.816;2024-03-23T09:23:46;28.20;;;13.15;;
69260;SDS011;56378;52.404;20.816;2024-03-23T09:26:12;28.83;;;14.20;;
69260;SDS011;56378;52.404;20.816;2024-03-23T09:28:38;25.10;;;13.38;;
69260;SDS011;56378;52.404;20.816;2024-03-23T09:31:04;27.85;;;13.73;;
69260;SDS011;56378;52.404;20.816;2024-03-23T09:33:30;28.23;;;14.05;;
69260;SDS011;56378;52.404;20.816;2024-03-23T09:35:56;26.43;;;13.37;;
69260;SDS011;56378;52.404;20.816;2024-03-23T09:38:22;28.05;;;14.63;;
69260;SDS011;56378;52.404;20.816;2024-03-23T09:40:49;28.05;;;13.95;;
69260;SDS011;56378;52.404;20.816;2024-03-23T09:43:24;28.30;;;14.03;;
69260;SDS011;56378;52.404;20.816;2024-03-23T09:45:49;28.40;;;13.00;;
69260;SDS011;56378;52.404;20.816;2024-03-23T09:48:23;27.88;;;13.15;;
69260;SDS011;56378;52.404;20.816;2024-03-23T09:50:49;25.40;;;12.53;;
69260;SDS011;56378;52.404;20.816;2024-03-23T09:55:48;24.13;;;12.38;;
69260;SDS011;56378;52.404;20.816;2024-03-23T09:58:15;25.23;;;12.30;;
69260;SDS011;56378;52.404;20.816;2024-03-23T10:00:42;24.40;;;11.90;;
69260;SDS011;56378;52.404;20.816;2024-03-23T10:03:08;25.80;;;11.38;;
69260;SDS011;56378;52.404;20.816;2024-03-23T10:05:36;24.52;;;11.07;;
69260;SDS011;56378;52.404;20.816;2024-03-23T10:10:40;21.63;;;11.25;;
69260;SDS011;56378;52.404;20.816;2024-03-23T10:13:07;20.07;;;9.77;;
69260;SDS011;56378;52.404;20.816;2024-03-23T10:15:36;21.88;;;10.45;;
69260;SDS011;56378;52.404;20.816;2024-03-23T10:18:20;18.73;;;9.70;;
69260;SDS011;56378;52.404;20.816;2024-03-23T10:23:35;20.15;;;9.77;;
69260;SDS011;56378;52.404;20.816;2024-03-23T10:26:21;21.00;;;10.13;;
69260;SDS011;56378;52.404;20.816;2024-03-23T10:31:25;18.83;;;9.55;;
69260;SDS011;56378;52.404;20.816;2024-03-23T10:33:51;16.83;;;8.57;;
69260;SDS011;56378;52.404;20.816;2024-03-23T10:36:19;15.10;;;8.85;;
69260;SDS011;56378;52.404;20.816;2024-03-23T10:38:51;16.60;;;8.43;;
69260;SDS011;56378;52.404;20.816;2024-03-23T10:41:24;18.48;;;8.50;;
69260;SDS011;56378;52.404;20.816;2024-03-23T10:43:52;16.00;;;8.00;;
69260;SDS011;56378;52.404;20.816;2024-03-23T10:46:20;14.35;;;8.10;;
69260;SDS011;56378;52.404;20.816;2024-03-23T10:48:46;15.57;;;7.80;;
69260;SDS011;56378;52.404;20.816;2024-03-23T10:51:21;16.25;;;7.80;;
69260;SDS011;56378;52.404;20.816;2024-03-23T10:53:47;14.40;;;7.77;;
69260;SDS011;56378;52.404;20.816;2024-03-23T10:56:13;13.52;;;7.20;;
69260;SDS011;56378;52.404;20.816;2024-03-23T10:58:44;14.27;;;7.53;;
69260;SDS011;56378;52.404;20.816;2024-03-23T11:01:18;13.85;;;6.82;;
69260;SDS011;56378;52.404;20.816;2024-03-23T11:03:48;14.93;;;7.70;;
69260;SDS011;56378;52.404;20.816;2024-03-23T11:09:38;14.45;;;7.00;;
69260;SDS011;56378;52.404;20.816;2024-03-23T11:12:28;12.70;;;6.40;;
69260;SDS011;56378;52.404;20.816;2024-03-23T11:17:29;13.20;;;6.80;;
69260;SDS011;56378;52.404;20.816;2024-03-23T11:19:56;13.30;;;6.70;;
69260;SDS011;56378;52.404;20.816;2024-03-23T11:25:13;13.80;;;6.88;;
69260;SDS011;56378;52.404;20.816;2024-03-23T11:27:57;13.68;;;6.32;;
69260;SDS011;56378;52.404;20.816;2024-03-23T11:30:59;13.00;;;6.87;;
69260;SDS011;56378;52.404;20.816;2024-03-23T11:36:24;12.60;;;6.53;;
69260;SDS011;56378;52.404;20.816;2024-03-23T11:38:50;12.52;;;6.70;;
69260;SDS011;56378;52.404;20.816;2024-03-23T11:41:16;12.07;;;6.00;;
69260;SDS011;56378;52.404;20.816;2024-03-23T11:43:42;13.33;;;7.20;;
69260;SDS011;56378;52.404;20.816;2024-03-23T11:46:08;14.20;;;6.78;;
69260;SDS011;56378;52.404;20.816;2024-03-23T11:48:34;14.37;;;6.43;;
69260;SDS011;56378;52.404;20.816;2024-03-23T11:51:02;11.05;;;6.20;;
69260;SDS011;56378;52.404;20.816;2024-03-23T11:53:28;12.75;;;6.45;;
69260;SDS011;56378;52.404;20.816;2024-03-23T11:55:58;14.88;;;6.80;;
69260;SDS011;56378;52.404;20.816;2024-03-23T11:58:26;14.13;;;6.72;;
69260;SDS011;56378;52.404;20.816;2024-03-23T12:03:22;11.43;;;6.22;;
69260;SDS011;56378;52.404;20.816;2024-03-23T12:05:59;11.25;;;6.10;;
69260;SDS011;56378;52.404;20.816;2024-03-23T12:08:29;11.90;;;6.40;;
69260;SDS011;56378;52.404;20.816;2024-03-23T12:11:10;14.20;;;6.22;;
69260;SDS011;56378;52.404;20.816;2024-03-23T12:13:38;11.00;;;6.10;;
69260;SDS011;56378;52.404;20.816;2024-03-23T12:16:14;12.68;;;6.55;;
69260;SDS011;56378;52.404;20.816;2024-03-23T12:18:49;12.07;;;6.13;;
69260;SDS011;56378;52.404;20.816;2024-03-23T12:21:32;12.80;;;7.30;;
69260;SDS011;56378;52.404;20.816;2024-03-23T12:24:01;12.02;;;6.55;;
69260;SDS011;56378;52.404;20.816;2024-03-23T12:26:29;12.50;;;6.50;;
69260;SDS011;56378;52.404;20.816;2024-03-23T12:28:55;12.40;;;6.60;;
69260;SDS011;56378;52.404;20.816;2024-03-23T12:31:21;11.73;;;6.18;;
69260;SDS011;56378;52.404;20.816;2024-03-23T12:33:46;12.67;;;6.70;;
69260;SDS011;56378;52.404;20.816;2024-03-23T12:36:12;13.20;;;6.55;;
69260;SDS011;56378;52.404;20.816;2024-03-23T12:38:38;11.87;;;6.27;;
69260;SDS011;56378;52.404;20.816;2024-03-23T12:41:03;11.43;;;6.55;;
69260;SDS011;56378;52.404;20.816;2024-03-23T12:43:30;15.27;;;6.17;;
69260;SDS011;56378;52.404;20.816;2024-03-23T12:45:59;14.85;;;7.13;;
69260;SDS011;56378;52.404;20.816;2024-03-23T12:48:27;18.52;;;6.88;;
69260;SDS011;56378;52.404;20.816;2024-03-23T12:50:58;19.02;;;7.88;;
69260;SDS011;56378;52.404;20.816;2024-03-23T12:53:28;18.02;;;7.43;;
69260;SDS011;56378;52.404;20.816;2024-03-23T12:55:54;15.93;;;6.67;;
69260;SDS011;56378;52.404;20.816;2024-03-23T12:58:21;17.23;;;6.78;;
69260;SDS011;56378;52.404;20.816;2024-03-23T13:00:47;15.27;;;6.90;;
69260;SDS011;56378;52.404;20.816;2024-03-23T13:03:13;16.07;;;6.20;;
69260;SDS011;56378;52.404;20.816;2024-03-23T13:05:40;11.30;;;5.65;;
69260;SDS011;56378;52.404;20.816;2024-03-23T13:08:06;10.77;;;5.32;;
69260;SDS011;56378;52.404;20.816;2024-03-23T13:10:32;11.63;;;4.83;;
69260;SDS011;56378;52.404;20.816;2024-03-23T13:12:58;10.60;;;5.10;;
69260;SDS011;56378;52.404;20.816;2024-03-23T13:15:24;10.63;;;5.30;;
69260;SDS011;56378;52.404;20.816;2024-03-23T13:17:52;13.95;;;6.40;;
69260;SDS011;56378;52.404;20.816;2024-03-23T13:20:19;13.88;;;5.97;;
69260;SDS011;56378;52.404;20.816;2024-03-23T13:25:17;14.40;;;6.45;;
69260;SDS011;56378;52.404;20.816;2024-03-23T13:27:43;14.83;;;6.70;;
69260;SDS011;56378;52.404;20.816;2024-03-23T13:30:09;11.85;;;5.97;;
69260;SDS011;56378;52.404;20.816;2024-03-23T13:32:36;14.05;;;6.00;;
69260;SDS011;56378;52.404;20.816;2024-03-23T13:35:02;11.43;;;6.28;;
69260;SDS011;56378;52.404;20.816;2024-03-23T13:37:27;12.10;;;5.50;;
69260;SDS011;56378;52.404;20.816;2024-03-23T13:39:53;13.02;;;5.80;;
69260;SDS011;56378;52.404;20.816;2024-03-23T13:42:19;10.87;;;5.57;;
69260;SDS011;56378;52.404;20.816;2024-03-23T13:44:44;11.38;;;5.65;;
69260;SDS011;56378;52.404;20.816;2024-03-23T13:47:10;10.90;;;5.40;;
69260;SDS011;56378;52.404;20.816;2024-03-23T13:49:35;12.33;;;5.53;;
69260;SDS011;56378;52.404;20.816;2024-03-23T13:52:04;10.90;;;5.07;;
69260;SDS011;56378;52.404;20.816;2024-03-23T13:54:32;10.00;;;5.03;;
69260;SDS011;56378;52.404;20.816;2024-03-23T13:56:58;13.60;;;5.60;;
69260;SDS011;56378;52.404;20.816;2024-03-23T13:59:23;10.30;;;5.38;;
69260;SDS011;56378;52.404;20.816;2024-03-23T14:01:49;11.83;;;5.23;;
69260;SDS011;56378;52.404;20.816;2024-03-23T14:04:16;9.85;;;5.55;;
69260;SDS011;56378;52.404;20.816;2024-03-23T14:06:45;16.70;;;9.70;;
69260;SDS011;56378;52.404;20.816;2024-03-23T14:09:12;12.20;;;6.50;;
69260;SDS011;56378;52.404;20.816;2024-03-23T14:11:39;12.90;;;6.50;;
69260;SDS011;56378;52.404;20.816;2024-03-23T14:14:06;13.03;;;6.80;;
69260;SDS011;56378;52.404;20.816;2024-03-23T14:16:36;25.00;;;10.60;;
69260;SDS011;56378;52.404;20.816;2024-03-23T14:19:02;20.30;;;10.10;;
69260;SDS011;56378;52.404;20.816;2024-03-23T14:21:31;20.08;;;12.02;;
69260;SDS011;56378;52.404;20.816;2024-03-23T14:23:56;20.48;;;12.27;;
69260;SDS011;56378;52.404;20.816;2024-03-23T14:26:22;20.00;;;11.57;;
69260;SDS011;56378;52.404;20.816;2024-03-23T14:28:48;18.67;;;12.07;;
69260;SDS011;56378;52.404;20.816;2024-03-23T14:31:15;21.75;;;11.13;;
69260;SDS011;56378;52.404;20.816;2024-03-23T14:33:41;19.40;;;11.23;;
69260;SDS011;56378;52.404;20.816;2024-03-23T14:36:11;19.45;;;10.23;;
69260;SDS011;56378;52.404;20.816;2024-03-23T14:38:39;16.73;;;8.95;;
69260;SDS011;56378;52.404;20.816;2024-03-23T14:41:05;17.17;;;9.30;;
69260;SDS011;56378;52.404;20.816;2024-03-23T14:43:31;16.00;;;8.57;;
69260;SDS011;56378;52.404;20.816;2024-03-23T14:48:55;16.77;;;9.05;;
69260;SDS011;56378;52.404;20.816;2024-03-23T14:51:24;16.50;;;9.10;;
69260;SDS011;56378;52.404;20.816;2024-03-23T14:53:50;20.20;;;11.02;;
69260;SDS011;56378;52.404;20.816;2024-03-23T14:56:15;31.60;;;16.43;;
69260;SDS011;56378;52.404;20.816;2024-03-23T14:58:42;31.52;;;16.42;;
69260;SDS011;56378;52.404;20.816;2024-03-23T15:01:08;33.42;;;16.20;;
69260;SDS011;56378;52.404;20.816;2024-03-23T15:03:34;47.05;;;26.80;;
69260;SDS011;56378;52.404;20.816;2024-03-23T15:06:08;33.23;;;17.40;;
69260;SDS011;56378;52.404;20.816;2024-03-23T15:08:40;33.80;;;20.00;;
69260;SDS011;56378;52.404;20.816;2024-03-23T15:11:06;32.72;;;20.27;;
69260;SDS011;56378;52.404;20.816;2024-03-23T15:13:32;27.30;;;17.90;;
69260;SDS011;56378;52.404;20.816;2024-03-23T15:16:00;30.10;;;16.75;;
69260;SDS011;56378;52.404;20.816;2024-03-23T15:18:28;28.15;;;16.50;;
69260;SDS011;56378;52.404;20.816;2024-03-23T15:20:55;29.17;;;17.15;;
69260;SDS011;56378;52.404;20.816;2024-03-23T15:23:22;27.63;;;16.15;;
69260;SDS011;56378;52.404;20.816;2024-03-23T15:25:58;33.17;;;17.07;;
69260;SDS011;56378;52.404;20.816;2024-03-23T15:28:25;27.92;;;16.58;;
69260;SDS011;56378;52.404;20.816;2024-03-23T15:31:02;29.95;;;16.88;;
69260;SDS011;56378;52.404;20.816;2024-03-23T15:33:29;31.13;;;17.58;;
69260;SDS011;56378;52.404;20.816;2024-03-23T15:35:58;26.47;;;15.47;;
69260;SDS011;56378;52.404;20.816;2024-03-23T15:38:27;44.47;;;25.65;;
69260;SDS011;56378;52.404;20.816;2024-03-23T15:40:54;62.05;;;31.65;;
69260;SDS011;56378;52.404;20.816;2024-03-23T15:43:20;37.10;;;20.80;;